sensor_id;sensor_type;location;lat;lon;timestamp;P1;durP1;ratioP1;P2;durP2;ratioP2
61741;SDS011;47650;49.848;9.620;2024-03-17T00:01:03;12.00;;;7.45;;
61741;SDS011;47650;49.848;9.620;2024-03-17T00:03:35;8.00;;;6.72;;
61741;SDS011;47650;49.848;9.620;2024-03-17T00:06:04;8.63;;;6.60;;
61741;SDS011;47650;49.848;9.620;2024-03-17T00:08:33;8.85;;;6.65;;
61741;SDS011;47650;49.848;9.620;2024-03-17T00:11:00;9.65;;;7.07;;
61741;SDS011;47650;49.848;9.620;2024-03-17T00:13:29;9.90;;;6.63;;
61741;SDS011;47650;49.848;9.620;2024-03-17T00:15:54;7.82;;;6.18;;
61741;SDS011;47650;49.848;9.620;2024-03-17T00:18:21;8.70;;;6.25;;
61741;SDS011;47650;49.848;9.620;2024-03-17T00:20:52;9.25;;;6.30;;
61741;SDS011;47650;49.848;9.620;2024-03-17T00:23:17;7.28;;;5.80;;
61741;SDS011;47650;49.848;9.620;2024-03-17T00:26:09;7.00;;;5.72;;
61741;SDS011;47650;49.848;9.620;2024-03-17T00:28:35;7.97;;;5.55;;
61741;SDS011;47650;49.848;9.620;2024-03-17T00:31:02;9.80;;;6.13;;
61741;SDS011;47650;49.848;9.620;2024-03-17T00:33:28;8.70;;;5.78;;
61741;SDS011;47650;49.848;9.620;2024-03-17T00:35:54;8.63;;;5.70;;
61741;SDS011;47650;49.848;9.620;2024-03-17T00:38:20;7.70;;;6.65;;
61741;SDS011;47650;49.848;9.620;2024-03-17T00:40:47;10.70;;;6.40;;
61741;SDS011;47650;49.848;9.620;2024-03-17T00:43:14;9.57;;;6.10;;
61741;SDS011;47650;49.848;9.620;2024-03-17T00:45:42;11.15;;;7.15;;
61741;SDS011;47650;49.848;9.620;2024-03-17T00:48:15;11.18;;;6.80;;
61741;SDS011;47650;49.848;9.620;2024-03-17T00:50:45;8.75;;;6.88;;
61741;SDS011;47650;49.848;9.620;2024-03-17T00:53:12;9.27;;;5.95;;
61741;SDS011;47650;49.848;9.620;2024-03-17T00:55:39;8.98;;;6.97;;
61741;SDS011;47650;49.848;9.620;2024-03-17T00:58:04;8.85;;;6.75;;
61741;SDS011;47650;49.848;9.620;2024-03-17T01:00:30;9.57;;;6.70;;
61741;SDS011;47650;49.848;9.620;2024-03-17T01:03:01;11.02;;;8.05;;
61741;SDS011;47650;49.848;9.620;2024-03-17T01:05:26;9.40;;;7.00;;
61741;SDS011;47650;49.848;9.620;2024-03-17T01:07:52;9.05;;;7.10;;
61741;SDS011;47650;49.848;9.620;2024-03-17T01:10:23;12.60;;;8.13;;
61741;SDS011;47650;49.848;9.620;2024-03-17T01:12:51;12.50;;;7.90;;
61741;SDS011;47650;49.848;9.620;2024-03-17T01:15:19;10.15;;;7.28;;
61741;SDS011;47650;49.848;9.620;2024-03-17T01:17:44;12.35;;;7.00;;
61741;SDS011;47650;49.848;9.620;2024-03-17T01:20:11;8.98;;;7.22;;
61741;SDS011;47650;49.848;9.620;2024-03-17T01:22:37;9.30;;;7.13;;
61741;SDS011;47650;49.848;9.620;2024-03-17T01:25:03;11.07;;;8.07;;
61741;SDS011;47650;49.848;9.620;2024-03-17T01:27:33;10.32;;;8.00;;
61741;SDS011;47650;49.848;9.620;2024-03-17T01:30:01;11.88;;;8.82;;
61741;SDS011;47650;49.848;9.620;2024-03-17T01:32:27;15.63;;;10.10;;
61741;SDS011;47650;49.848;9.620;2024-03-17T01:34:52;15.68;;;9.52;;
61741;SDS011;47650;49.848;9.620;2024-03-17T01:37:19;16.38;;;10.63;;
61741;SDS011;47650;49.848;9.620;2024-03-17T01:39:46;12.52;;;8.23;;
61741;SDS011;47650;49.848;9.620;2024-03-17T01:42:12;17.33;;;8.98;;
61741;SDS011;47650;49.848;9.620;2024-03-17T01:44:39;12.77;;;9.13;;
61741;SDS011;47650;49.848;9.620;2024-03-17T01:47:05;12.73;;;8.10;;
61741;SDS011;47650;49.848;9.620;2024-03-17T01:49:33;12.00;;;8.00;;
61741;SDS011;47650;49.848;9.620;2024-03-17T01:51:59;10.30;;;6.63;;
61741;SDS011;47650;49.848;9.620;2024-03-17T01:54:25;11.30;;;7.93;;
61741;SDS011;47650;49.848;9.620;2024-03-17T01:56:56;15.13;;;7.57;;
61741;SDS011;47650;49.848;9.620;2024-03-17T01:59:22;10.35;;;7.07;;
61741;SDS011;47650;49.848;9.620;2024-03-17T02:01:48;9.13;;;6.82;;
61741;SDS011;47650;49.848;9.620;2024-03-17T02:04:14;9.45;;;7.18;;
61741;SDS011;47650;49.848;9.620;2024-03-17T02:06:42;11.60;;;7.63;;
61741;SDS011;47650;49.848;9.620;2024-03-17T02:09:09;10.52;;;7.60;;
61741;SDS011;47650;49.848;9.620;2024-03-17T02:11:35;12.80;;;7.82;;
61741;SDS011;47650;49.848;9.620;2024-03-17T02:14:00;11.98;;;8.48;;
61741;SDS011;47650;49.848;9.620;2024-03-17T02:16:32;10.70;;;7.90;;
61741;SDS011;47650;49.848;9.620;2024-03-17T02:18:57;12.10;;;7.15;;
61741;SDS011;47650;49.848;9.620;2024-03-17T02:21:23;10.02;;;7.20;;
61741;SDS011;47650;49.848;9.620;2024-03-17T02:23:50;14.57;;;7.22;;
61741;SDS011;47650;49.848;9.620;2024-03-17T02:26:17;12.70;;;8.25;;
61741;SDS011;47650;49.848;9.620;2024-03-17T02:28:45;12.77;;;7.80;;
61741;SDS011;47650;49.848;9.620;2024-03-17T02:31:11;13.50;;;7.95;;
61741;SDS011;47650;49.848;9.620;2024-03-17T02:33:38;9.50;;;7.07;;
61741;SDS011;47650;49.848;9.620;2024-03-17T02:36:06;11.40;;;8.27;;
61741;SDS011;47650;49.848;9.620;2024-03-17T02:38:36;12.02;;;8.43;;
61741;SDS011;47650;49.848;9.620;2024-03-17T02:41:26;9.95;;;7.65;;
61741;SDS011;47650;49.848;9.620;2024-03-17T02:43:53;11.18;;;7.82;;
61741;SDS011;47650;49.848;9.620;2024-03-17T02:46:19;8.73;;;7.32;;
61741;SDS011;47650;49.848;9.620;2024-03-17T02:48:47;10.45;;;7.13;;
61741;SDS011;47650;49.848;9.620;2024-03-17T02:51:17;13.27;;;7.93;;
61741;SDS011;47650;49.848;9.620;2024-03-17T02:53:48;10.60;;;7.97;;
61741;SDS011;47650;49.848;9.620;2024-03-17T02:56:14;14.13;;;8.07;;
61741;SDS011;47650;49.848;9.620;2024-03-17T02:58:44;12.63;;;7.78;;
61741;SDS011;47650;49.848;9.620;2024-03-17T03:01:14;13.32;;;7.95;;
61741;SDS011;47650;49.848;9.620;2024-03-17T03:03:42;10.30;;;7.28;;
61741;SDS011;47650;49.848;9.620;2024-03-17T03:06:07;12.85;;;7.50;;
61741;SDS011;47650;49.848;9.620;2024-03-17T03:08:40;9.93;;;7.97;;
61741;SDS011;47650;49.848;9.620;2024-03-17T03:11:09;11.98;;;7.50;;
61741;SDS011;47650;49.848;9.620;2024-03-17T03:13:37;12.13;;;7.63;;
61741;SDS011;47650;49.848;9.620;2024-03-17T03:16:12;11.65;;;7.90;;
61741;SDS011;47650;49.848;9.620;2024-03-17T03:18:39;11.75;;;8.00;;
61741;SDS011;47650;49.848;9.620;2024-03-17T03:21:13;15.25;;;9.20;;
61741;SDS011;47650;49.848;9.620;2024-03-17T03:23:41;12.57;;;9.27;;
61741;SDS011;47650;49.848;9.620;2024-03-17T03:26:12;11.65;;;7.78;;
61741;SDS011;47650;49.848;9.620;2024-03-17T03:28:41;13.00;;;8.30;;
61741;SDS011;47650;49.848;9.620;2024-03-17T03:31:10;12.60;;;8.23;;
61741;SDS011;47650;49.848;9.620;2024-03-17T03:33:46;12.40;;;8.25;;
61741;SDS011;47650;49.848;9.620;2024-03-17T03:36:14;12.98;;;8.70;;
61741;SDS011;47650;49.848;9.620;2024-03-17T03:38:42;13.05;;;8.68;;
61741;SDS011;47650;49.848;9.620;2024-03-17T03:41:08;11.50;;;8.18;;
61741;SDS011;47650;49.848;9.620;2024-03-17T03:43:38;9.98;;;7.93;;
61741;SDS011;47650;49.848;9.620;2024-03-17T03:46:06;15.20;;;8.80;;
61741;SDS011;47650;49.848;9.620;2024-03-17T03:48:34;12.27;;;8.52;;
61741;SDS011;47650;49.848;9.620;2024-03-17T03:51:04;16.25;;;10.40;;
61741;SDS011;47650;49.848;9.620;2024-03-17T03:53:32;12.63;;;9.43;;
61741;SDS011;47650;49.848;9.620;2024-03-17T03:55:57;14.93;;;9.45;;
61741;SDS011;47650;49.848;9.620;2024-03-17T03:58:26;14.23;;;9.23;;
61741;SDS011;47650;49.848;9.620;2024-03-17T04:00:54;13.73;;;9.20;;
61741;SDS011;47650;49.848;9.620;2024-03-17T04:03:21;12.38;;;9.23;;
61741;SDS011;47650;49.848;9.620;2024-03-17T04:05:47;19.45;;;10.00;;
61741;SDS011;47650;49.848;9.620;2024-03-17T04:08:19;15.63;;;9.65;;
61741;SDS011;47650;49.848;9.620;2024-03-17T04:13:16;18.83;;;10.23;;
61741;SDS011;47650;49.848;9.620;2024-03-17T04:15:41;14.13;;;9.93;;
61741;SDS011;47650;49.848;9.620;2024-03-17T04:18:07;13.27;;;9.48;;
61741;SDS011;47650;49.848;9.620;2024-03-17T04:20:40;17.33;;;10.73;;
61741;SDS011;47650;49.848;9.620;2024-03-17T04:23:07;14.13;;;8.73;;
61741;SDS011;47650;49.848;9.620;2024-03-17T04:25:36;14.23;;;9.48;;
61741;SDS011;47650;49.848;9.620;2024-03-17T04:30:29;13.38;;;8.73;;
61741;SDS011;47650;49.848;9.620;2024-03-17T04:33:03;11.43;;;8.55;;
61741;SDS011;47650;49.848;9.620;2024-03-17T04:35:37;11.00;;;8.13;;
61741;SDS011;47650;49.848;9.620;2024-03-17T04:38:03;11.73;;;8.82;;
61741;SDS011;47650;49.848;9.620;2024-03-17T04:40:32;19.13;;;10.95;;
61741;SDS011;47650;49.848;9.620;2024-03-17T04:43:07;13.35;;;9.20;;
61741;SDS011;47650;49.848;9.620;2024-03-17T04:45:33;13.90;;;8.48;;
61741;SDS011;47650;49.848;9.620;2024-03-17T04:47:59;11.27;;;8.23;;
61741;SDS011;47650;49.848;9.620;2024-03-17T04:50:24;11.95;;;8.00;;
61741;SDS011;47650;49.848;9.620;2024-03-17T04:52:51;13.15;;;8.60;;
61741;SDS011;47650;49.848;9.620;2024-03-17T04:55:17;11.88;;;8.27;;
61741;SDS011;47650;49.848;9.620;2024-03-17T04:57:43;12.25;;;8.23;;
61741;SDS011;47650;49.848;9.620;2024-03-17T05:00:10;12.80;;;8.07;;
61741;SDS011;47650;49.848;9.620;2024-03-17T05:02:38;10.40;;;7.80;;
61741;SDS011;47650;49.848;9.620;2024-03-17T05:05:05;13.18;;;9.02;;
61741;SDS011;47650;49.848;9.620;2024-03-17T05:07:33;9.05;;;7.00;;
61741;SDS011;47650;49.848;9.620;2024-03-17T05:10:00;14.10;;;8.10;;
61741;SDS011;47650;49.848;9.620;2024-03-17T05:12:26;13.35;;;8.57;;
61741;SDS011;47650;49.848;9.620;2024-03-17T05:14:53;10.77;;;7.72;;
61741;SDS011;47650;49.848;9.620;2024-03-17T05:17:19;13.02;;;7.88;;
61741;SDS011;47650;49.848;9.620;2024-03-17T05:19:44;10.30;;;8.68;;
61741;SDS011;47650;49.848;9.620;2024-03-17T05:22:09;13.43;;;9.63;;
61741;SDS011;47650;49.848;9.620;2024-03-17T05:24:36;14.00;;;9.02;;
61741;SDS011;47650;49.848;9.620;2024-03-17T05:27:07;14.68;;;9.40;;
61741;SDS011;47650;49.848;9.620;2024-03-17T05:29:32;12.45;;;8.85;;
61741;SDS011;47650;49.848;9.620;2024-03-17T05:32:04;12.57;;;9.20;;
61741;SDS011;47650;49.848;9.620;2024-03-17T05:34:30;10.77;;;7.68;;
61741;SDS011;47650;49.848;9.620;2024-03-17T05:36:55;12.80;;;8.88;;
61741;SDS011;47650;49.848;9.620;2024-03-17T05:39:20;12.80;;;8.23;;
61741;SDS011;47650;49.848;9.620;2024-03-17T05:41:53;13.13;;;9.10;;
61741;SDS011;47650;49.848;9.620;2024-03-17T05:44:18;12.30;;;8.73;;
61741;SDS011;47650;49.848;9.620;2024-03-17T05:46:43;14.77;;;9.35;;
61741;SDS011;47650;49.848;9.620;2024-03-17T05:49:09;16.02;;;9.88;;
61741;SDS011;47650;49.848;9.620;2024-03-17T05:51:35;13.68;;;10.80;;
61741;SDS011;47650;49.848;9.620;2024-03-17T05:54:00;12.68;;;9.95;;
61741;SDS011;47650;49.848;9.620;2024-03-17T05:56:26;13.05;;;9.75;;
61741;SDS011;47650;49.848;9.620;2024-03-17T05:58:52;11.85;;;8.63;;
61741;SDS011;47650;49.848;9.620;2024-03-17T06:01:19;12.35;;;9.20;;
61741;SDS011;47650;49.848;9.620;2024-03-17T06:03:45;16.23;;;10.82;;
61741;SDS011;47650;49.848;9.620;2024-03-17T06:06:10;12.38;;;9.32;;
61741;SDS011;47650;49.848;9.620;2024-03-17T06:08:36;12.65;;;9.98;;
61741;SDS011;47650;49.848;9.620;2024-03-17T06:11:02;14.23;;;10.07;;
61741;SDS011;47650;49.848;9.620;2024-03-17T06:13:29;15.02;;;10.18;;
61741;SDS011;47650;49.848;9.620;2024-03-17T06:15:56;12.07;;;8.57;;
61741;SDS011;47650;49.848;9.620;2024-03-17T06:18:25;11.55;;;8.52;;
61741;SDS011;47650;49.848;9.620;2024-03-17T06:20:51;9.73;;;8.07;;
61741;SDS011;47650;49.848;9.620;2024-03-17T06:23:16;11.80;;;9.45;;
61741;SDS011;47650;49.848;9.620;2024-03-17T06:25:43;11.93;;;8.82;;
61741;SDS011;47650;49.848;9.620;2024-03-17T06:28:10;10.05;;;7.85;;
61741;SDS011;47650;49.848;9.620;2024-03-17T06:30:39;10.35;;;8.15;;
61741;SDS011;47650;49.848;9.620;2024-03-17T06:33:16;12.30;;;8.13;;
61741;SDS011;47650;49.848;9.620;2024-03-17T06:35:44;10.68;;;8.23;;
61741;SDS011;47650;49.848;9.620;2024-03-17T06:38:10;10.40;;;7.95;;
61741;SDS011;47650;49.848;9.620;2024-03-17T06:40:38;12.63;;;9.63;;
61741;SDS011;47650;49.848;9.620;2024-03-17T06:43:03;12.85;;;8.88;;
61741;SDS011;47650;49.848;9.620;2024-03-17T06:45:41;14.52;;;11.52;;
61741;SDS011;47650;49.848;9.620;2024-03-17T06:48:06;11.10;;;9.48;;
61741;SDS011;47650;49.848;9.620;2024-03-17T06:50:33;8.93;;;7.97;;
61741;SDS011;47650;49.848;9.620;2024-03-17T06:52:58;15.85;;;13.50;;
61741;SDS011;47650;49.848;9.620;2024-03-17T06:55:23;14.57;;;11.27;;
61741;SDS011;47650;49.848;9.620;2024-03-17T06:57:49;10.48;;;9.38;;
61741;SDS011;47650;49.848;9.620;2024-03-17T07:00:15;11.18;;;8.15;;
61741;SDS011;47650;49.848;9.620;2024-03-17T07:02:43;10.40;;;6.88;;
61741;SDS011;47650;49.848;9.620;2024-03-17T07:05:15;8.95;;;7.20;;
61741;SDS011;47650;49.848;9.620;2024-03-17T07:07:43;11.98;;;9.30;;
61741;SDS011;47650;49.848;9.620;2024-03-17T07:10:09;9.57;;;8.40;;
61741;SDS011;47650;49.848;9.620;2024-03-17T07:12:37;10.70;;;9.13;;
61741;SDS011;47650;49.848;9.620;2024-03-17T07:15:03;9.20;;;8.25;;
61741;SDS011;47650;49.848;9.620;2024-03-17T07:17:33;6.80;;;6.07;;
61741;SDS011;47650;49.848;9.620;2024-03-17T07:19:59;10.23;;;6.18;;
61741;SDS011;47650;49.848;9.620;2024-03-17T07:22:24;8.20;;;5.03;;
61741;SDS011;47650;49.848;9.620;2024-03-17T07:24:53;7.32;;;4.72;;
61741;SDS011;47650;49.848;9.620;2024-03-17T07:27:25;6.22;;;4.15;;
61741;SDS011;47650;49.848;9.620;2024-03-17T07:29:51;5.80;;;4.75;;
61741;SDS011;47650;49.848;9.620;2024-03-17T07:32:16;6.05;;;5.05;;
61741;SDS011;47650;49.848;9.620;2024-03-17T07:34:42;5.10;;;4.00;;
61741;SDS011;47650;49.848;9.620;2024-03-17T07:37:07;5.03;;;4.00;;
61741;SDS011;47650;49.848;9.620;2024-03-17T07:39:39;7.13;;;3.85;;
61741;SDS011;47650;49.848;9.620;2024-03-17T07:42:05;5.20;;;4.10;;
61741;SDS011;47650;49.848;9.620;2024-03-17T07:44:32;4.32;;;3.92;;
61741;SDS011;47650;49.848;9.620;2024-03-17T07:47:01;7.88;;;4.03;;
61741;SDS011;47650;49.848;9.620;2024-03-17T07:49:38;4.18;;;3.65;;
61741;SDS011;47650;49.848;9.620;2024-03-17T07:54:40;6.28;;;4.05;;
61741;SDS011;47650;49.848;9.620;2024-03-17T07:57:05;6.35;;;3.50;;
61741;SDS011;47650;49.848;9.620;2024-03-17T07:59:32;5.07;;;3.78;;
61741;SDS011;47650;49.848;9.620;2024-03-17T08:01:58;4.63;;;3.40;;
61741;SDS011;47650;49.848;9.620;2024-03-17T08:04:24;5.22;;;3.30;;
61741;SDS011;47650;49.848;9.620;2024-03-17T08:06:50;4.93;;;3.53;;
61741;SDS011;47650;49.848;9.620;2024-03-17T08:09:15;4.95;;;3.28;;
61741;SDS011;47650;49.848;9.620;2024-03-17T08:11:41;6.78;;;3.35;;
61741;SDS011;47650;49.848;9.620;2024-03-17T08:14:11;5.85;;;3.30;;
61741;SDS011;47650;49.848;9.620;2024-03-17T08:16:37;6.10;;;3.30;;
61741;SDS011;47650;49.848;9.620;2024-03-17T08:19:02;3.97;;;3.33;;
61741;SDS011;47650;49.848;9.620;2024-03-17T08:21:28;4.55;;;3.38;;
61741;SDS011;47650;49.848;9.620;2024-03-17T08:23:54;5.65;;;3.50;;
61741;SDS011;47650;49.848;9.620;2024-03-17T08:26:20;4.85;;;2.88;;
61741;SDS011;47650;49.848;9.620;2024-03-17T08:28:45;4.68;;;3.28;;
61741;SDS011;47650;49.848;9.620;2024-03-17T08:31:12;4.03;;;3.63;;
61741;SDS011;47650;49.848;9.620;2024-03-17T08:33:40;3.88;;;2.88;;
61741;SDS011;47650;49.848;9.620;2024-03-17T08:36:06;4.53;;;3.80;;
61741;SDS011;47650;49.848;9.620;2024-03-17T08:38:33;5.07;;;4.40;;
61741;SDS011;47650;49.848;9.620;2024-03-17T08:41:03;5.75;;;3.83;;
61741;SDS011;47650;49.848;9.620;2024-03-17T08:43:30;4.88;;;3.63;;
61741;SDS011;47650;49.848;9.620;2024-03-17T08:46:00;4.63;;;3.80;;
61741;SDS011;47650;49.848;9.620;2024-03-17T08:48:28;3.40;;;3.10;;
61741;SDS011;47650;49.848;9.620;2024-03-17T08:50:55;4.80;;;4.40;;
61741;SDS011;47650;49.848;9.620;2024-03-17T08:53:21;5.00;;;4.50;;
61741;SDS011;47650;49.848;9.620;2024-03-17T08:55:47;7.32;;;4.80;;
61741;SDS011;47650;49.848;9.620;2024-03-17T08:58:15;5.72;;;5.22;;
61741;SDS011;47650;49.848;9.620;2024-03-17T09:00:41;6.75;;;6.15;;
61741;SDS011;47650;49.848;9.620;2024-03-17T09:03:07;6.53;;;6.03;;
61741;SDS011;47650;49.848;9.620;2024-03-17T09:05:43;5.70;;;5.18;;
61741;SDS011;47650;49.848;9.620;2024-03-17T09:08:18;5.28;;;4.85;;
61741;SDS011;47650;49.848;9.620;2024-03-17T09:10:45;5.70;;;5.20;;
61741;SDS011;47650;49.848;9.620;2024-03-17T09:13:16;7.43;;;6.13;;
61741;SDS011;47650;49.848;9.620;2024-03-17T09:16:00;6.38;;;5.38;;
61741;SDS011;47650;49.848;9.620;2024-03-17T09:18:29;6.70;;;6.10;;
61741;SDS011;47650;49.848;9.620;2024-03-17T09:20:59;7.53;;;6.82;;
61741;SDS011;47650;49.848;9.620;2024-03-17T09:23:27;6.65;;;6.05;;
61741;SDS011;47650;49.848;9.620;2024-03-17T09:25:56;6.05;;;5.57;;
61741;SDS011;47650;49.848;9.620;2024-03-17T09:28:27;6.05;;;5.60;;
61741;SDS011;47650;49.848;9.620;2024-03-17T09:30:55;6.68;;;6.10;;
61741;SDS011;47650;49.848;9.620;2024-03-17T09:33:21;6.57;;;6.07;;
61741;SDS011;47650;49.848;9.620;2024-03-17T09:35:57;5.80;;;5.20;;
61741;SDS011;47650;49.848;9.620;2024-03-17T09:38:27;5.22;;;4.80;;
61741;SDS011;47650;49.848;9.620;2024-03-17T09:40:54;6.05;;;4.43;;
61741;SDS011;47650;49.848;9.620;2024-03-17T09:43:28;4.70;;;4.30;;
61741;SDS011;47650;49.848;9.620;2024-03-17T09:45:56;5.13;;;4.72;;
61741;SDS011;47650;49.848;9.620;2024-03-17T09:48:26;5.50;;;5.00;;
61741;SDS011;47650;49.848;9.620;2024-03-17T09:50:57;5.55;;;5.13;;
61741;SDS011;47650;49.848;9.620;2024-03-17T09:53:33;6.82;;;4.63;;
61741;SDS011;47650;49.848;9.620;2024-03-17T09:56:09;4.93;;;4.53;;
61741;SDS011;47650;49.848;9.620;2024-03-17T09:58:38;5.35;;;3.90;;
61741;SDS011;47650;49.848;9.620;2024-03-17T10:01:04;5.15;;;4.30;;
61741;SDS011;47650;49.848;9.620;2024-03-17T10:06:16;4.43;;;3.60;;
61741;SDS011;47650;49.848;9.620;2024-03-17T10:08:44;4.05;;;3.75;;
61741;SDS011;47650;49.848;9.620;2024-03-17T10:11:12;4.28;;;3.30;;
61741;SDS011;47650;49.848;9.620;2024-03-17T10:13:40;5.03;;;3.20;;
61741;SDS011;47650;49.848;9.620;2024-03-17T10:16:06;4.60;;;4.13;;
61741;SDS011;47650;49.848;9.620;2024-03-17T10:18:46;5.32;;;4.10;;
61741;SDS011;47650;49.848;9.620;2024-03-17T10:21:46;4.10;;;3.70;;
61741;SDS011;47650;49.848;9.620;2024-03-17T10:24:12;4.97;;;4.35;;
61741;SDS011;47650;49.848;9.620;2024-03-17T10:26:48;4.30;;;3.50;;
61741;SDS011;47650;49.848;9.620;2024-03-17T10:29:19;4.03;;;3.20;;
61741;SDS011;47650;49.848;9.620;2024-03-17T10:31:59;4.00;;;3.17;;
61741;SDS011;47650;49.848;9.620;2024-03-17T10:34:27;5.40;;;3.45;;
61741;SDS011;47650;49.848;9.620;2024-03-17T10:39:37;5.10;;;3.10;;
61741;SDS011;47650;49.848;9.620;2024-03-17T10:42:04;4.07;;;3.15;;
61741;SDS011;47650;49.848;9.620;2024-03-17T10:44:37;4.07;;;3.30;;
61741;SDS011;47650;49.848;9.620;2024-03-17T10:47:03;3.33;;;2.83;;
61741;SDS011;47650;49.848;9.620;2024-03-17T10:49:36;4.32;;;2.80;;
61741;SDS011;47650;49.848;9.620;2024-03-17T10:52:06;3.88;;;2.65;;
61741;SDS011;47650;49.848;9.620;2024-03-17T10:54:42;3.25;;;2.53;;
61741;SDS011;47650;49.848;9.620;2024-03-17T10:57:31;3.87;;;2.80;;
61741;SDS011;47650;49.848;9.620;2024-03-17T11:00:13;4.40;;;2.70;;
61741;SDS011;47650;49.848;9.620;2024-03-17T11:02:43;4.13;;;3.40;;
61741;SDS011;47650;49.848;9.620;2024-03-17T11:07:49;4.78;;;2.70;;
61741;SDS011;47650;49.848;9.620;2024-03-17T11:10:16;5.47;;;2.90;;
61741;SDS011;47650;49.848;9.620;2024-03-17T11:18:41;4.90;;;3.35;;
61741;SDS011;47650;49.848;9.620;2024-03-17T11:21:01;5.28;;;3.33;;
61741;SDS011;47650;49.848;9.620;2024-03-17T11:23:45;4.13;;;2.80;;
61741;SDS011;47650;49.848;9.620;2024-03-17T11:26:26;4.30;;;2.83;;
61741;SDS011;47650;49.848;9.620;2024-03-17T11:28:53;4.28;;;3.03;;
61741;SDS011;47650;49.848;9.620;2024-03-17T11:31:36;5.32;;;3.47;;
61741;SDS011;47650;49.848;9.620;2024-03-17T11:34:31;5.43;;;3.45;;
61741;SDS011;47650;49.848;9.620;2024-03-17T11:36:58;4.45;;;2.95;;
61741;SDS011;47650;49.848;9.620;2024-03-17T11:42:25;4.75;;;3.40;;
61741;SDS011;47650;49.848;9.620;2024-03-17T11:45:04;6.10;;;3.30;;
61741;SDS011;47650;49.848;9.620;2024-03-17T11:47:36;3.05;;;2.58;;
61741;SDS011;47650;49.848;9.620;2024-03-17T11:50:05;4.15;;;2.80;;
61741;SDS011;47650;49.848;9.620;2024-03-17T11:52:33;5.75;;;2.85;;
61741;SDS011;47650;49.848;9.620;2024-03-17T11:54:58;3.30;;;2.80;;
61741;SDS011;47650;49.848;9.620;2024-03-17T11:57:25;3.70;;;2.85;;
61741;SDS011;47650;49.848;9.620;2024-03-17T11:59:51;3.80;;;2.92;;
61741;SDS011;47650;49.848;9.620;2024-03-17T12:02:23;4.32;;;3.30;;
61741;SDS011;47650;49.848;9.620;2024-03-17T12:04:53;3.58;;;3.20;;
61741;SDS011;47650;49.848;9.620;2024-03-17T12:07:22;7.03;;;3.40;;
61741;SDS011;47650;49.848;9.620;2024-03-17T12:09:48;6.03;;;3.97;;
61741;SDS011;47650;49.848;9.620;2024-03-17T12:12:24;5.82;;;3.65;;
61741;SDS011;47650;49.848;9.620;2024-03-17T12:15:02;5.60;;;3.45;;
61741;SDS011;47650;49.848;9.620;2024-03-17T12:17:29;3.88;;;3.08;;
61741;SDS011;47650;49.848;9.620;2024-03-17T12:19:56;4.10;;;3.03;;
61741;SDS011;47650;49.848;9.620;2024-03-17T12:22:22;5.70;;;3.38;;
61741;SDS011;47650;49.848;9.620;2024-03-17T12:24:50;3.85;;;2.72;;
61741;SDS011;47650;49.848;9.620;2024-03-17T12:27:18;4.00;;;3.00;;
61741;SDS011;47650;49.848;9.620;2024-03-17T12:29:45;3.67;;;3.08;;
61741;SDS011;47650;49.848;9.620;2024-03-17T12:32:15;5.50;;;3.50;;
61741;SDS011;47650;49.848;9.620;2024-03-17T12:34:45;4.68;;;3.13;;
61741;SDS011;47650;49.848;9.620;2024-03-17T12:37:16;4.78;;;3.63;;
61741;SDS011;47650;49.848;9.620;2024-03-17T12:39:46;3.95;;;3.08;;
61741;SDS011;47650;49.848;9.620;2024-03-17T12:42:22;4.03;;;2.85;;
61741;SDS011;47650;49.848;9.620;2024-03-17T12:44:56;3.38;;;3.00;;
61741;SDS011;47650;49.848;9.620;2024-03-17T12:47:27;3.70;;;3.30;;
61741;SDS011;47650;49.848;9.620;2024-03-17T12:49:57;4.63;;;2.58;;
61741;SDS011;47650;49.848;9.620;2024-03-17T12:52:26;5.63;;;3.03;;
61741;SDS011;47650;49.848;9.620;2024-03-17T12:57:51;2.70;;;2.40;;
61741;SDS011;47650;49.848;9.620;2024-03-17T13:00:36;3.65;;;2.72;;
61741;SDS011;47650;49.848;9.620;2024-03-17T13:03:06;2.88;;;2.10;;
61741;SDS011;47650;49.848;9.620;2024-03-17T13:05:33;3.22;;;1.90;;
61741;SDS011;47650;49.848;9.620;2024-03-17T13:07:59;3.75;;;2.08;;
61741;SDS011;47650;49.848;9.620;2024-03-17T13:10:25;3.92;;;1.90;;
61741;SDS011;47650;49.848;9.620;2024-03-17T13:13:02;4.25;;;2.30;;
61741;SDS011;47650;49.848;9.620;2024-03-17T13:15:32;3.85;;;2.20;;
61741;SDS011;47650;49.848;9.620;2024-03-17T13:18:00;4.57;;;2.17;;
61741;SDS011;47650;49.848;9.620;2024-03-17T13:20:26;2.50;;;2.20;;
61741;SDS011;47650;49.848;9.620;2024-03-17T13:22:52;4.63;;;2.53;;
61741;SDS011;47650;49.848;9.620;2024-03-17T13:25:19;4.53;;;2.30;;
61741;SDS011;47650;49.848;9.620;2024-03-17T13:27:49;4.85;;;2.38;;
61741;SDS011;47650;49.848;9.620;2024-03-17T13:30:16;3.42;;;1.90;;
61741;SDS011;47650;49.848;9.620;2024-03-17T13:32:44;3.92;;;2.42;;
61741;SDS011;47650;49.848;9.620;2024-03-17T13:35:19;3.50;;;2.47;;
61741;SDS011;47650;49.848;9.620;2024-03-17T13:37:46;2.92;;;2.20;;
61741;SDS011;47650;49.848;9.620;2024-03-17T13:40:14;2.63;;;2.08;;
61741;SDS011;47650;49.848;9.620;2024-03-17T13:42:47;2.13;;;1.92;;
61741;SDS011;47650;49.848;9.620;2024-03-17T13:45:16;3.20;;;2.03;;
61741;SDS011;47650;49.848;9.620;2024-03-17T13:47:56;3.83;;;1.98;;
61741;SDS011;47650;49.848;9.620;2024-03-17T13:50:29;5.10;;;2.60;;
61741;SDS011;47650;49.848;9.620;2024-03-17T13:52:57;6.55;;;4.90;;
61741;SDS011;47650;49.848;9.620;2024-03-17T13:55:24;2.65;;;2.17;;
61741;SDS011;47650;49.848;9.620;2024-03-17T13:57:52;3.70;;;2.50;;
61741;SDS011;47650;49.848;9.620;2024-03-17T14:00:25;5.68;;;2.38;;
61741;SDS011;47650;49.848;9.620;2024-03-17T14:02:57;3.50;;;2.00;;
61741;SDS011;47650;49.848;9.620;2024-03-17T14:05:25;3.08;;;2.17;;
61741;SDS011;47650;49.848;9.620;2024-03-17T14:07:51;4.80;;;2.28;;
61741;SDS011;47650;49.848;9.620;2024-03-17T14:10:19;4.68;;;1.92;;
61741;SDS011;47650;49.848;9.620;2024-03-17T14:12:45;3.65;;;2.28;;
61741;SDS011;47650;49.848;9.620;2024-03-17T14:15:11;3.20;;;2.20;;
61741;SDS011;47650;49.848;9.620;2024-03-17T14:17:38;2.88;;;2.30;;
61741;SDS011;47650;49.848;9.620;2024-03-17T14:20:05;3.88;;;1.83;;
61741;SDS011;47650;49.848;9.620;2024-03-17T14:22:34;4.47;;;2.08;;
61741;SDS011;47650;49.848;9.620;2024-03-17T14:25:06;3.17;;;1.92;;
61741;SDS011;47650;49.848;9.620;2024-03-17T14:27:34;5.25;;;2.30;;
61741;SDS011;47650;49.848;9.620;2024-03-17T14:32:34;3.78;;;2.58;;
61741;SDS011;47650;49.848;9.620;2024-03-17T14:35:02;3.60;;;2.20;;
61741;SDS011;47650;49.848;9.620;2024-03-17T14:37:28;5.57;;;2.92;;
61741;SDS011;47650;49.848;9.620;2024-03-17T14:39:53;4.20;;;2.00;;
61741;SDS011;47650;49.848;9.620;2024-03-17T14:42:19;3.50;;;2.17;;
61741;SDS011;47650;49.848;9.620;2024-03-17T14:44:45;3.75;;;2.47;;
61741;SDS011;47650;49.848;9.620;2024-03-17T14:47:14;3.60;;;2.42;;
61741;SDS011;47650;49.848;9.620;2024-03-17T14:49:42;3.15;;;2.40;;
61741;SDS011;47650;49.848;9.620;2024-03-17T14:52:09;4.38;;;2.50;;
61741;SDS011;47650;49.848;9.620;2024-03-17T14:54:37;4.30;;;2.63;;
61741;SDS011;47650;49.848;9.620;2024-03-17T14:57:02;3.63;;;2.22;;
61741;SDS011;47650;49.848;9.620;2024-03-17T14:59:27;4.25;;;2.97;;
61741;SDS011;47650;49.848;9.620;2024-03-17T15:01:52;4.80;;;2.60;;
61741;SDS011;47650;49.848;9.620;2024-03-17T15:04:18;6.88;;;2.65;;
61741;SDS011;47650;49.848;9.620;2024-03-17T15:06:43;4.20;;;2.30;;
61741;SDS011;47650;49.848;9.620;2024-03-17T15:09:10;5.00;;;2.53;;
61741;SDS011;47650;49.848;9.620;2024-03-17T15:11:37;4.47;;;2.50;;
61741;SDS011;47650;49.848;9.620;2024-03-17T15:14:02;3.97;;;2.80;;
61741;SDS011;47650;49.848;9.620;2024-03-17T15:16:33;3.17;;;2.22;;
61741;SDS011;47650;49.848;9.620;2024-03-17T15:18:58;3.60;;;2.30;;
61741;SDS011;47650;49.848;9.620;2024-03-17T15:21:25;3.97;;;2.40;;